Genius — 2CPA7 — position and weather

sailwx.info

Track history (hours):
 
Tides and Currents Weather Stations Pressure Air Temp Water Temp Dewpoint Dewpoint Depression Visibility Wind Speed Wind Dir Waves Ship Positions

Genius

Last reported at 2014-May-18 06:33 UTC. Time now 2014-Jul-26 19:17 UTC.
Position N 34°20' E 127°58'.
Warning: this ship's position is months out of date.

Length 288 m; draft 8.4 m.

Type: Cargo ship. MMSI: 235074615.

Date/timePositionNaut miles runAvg speedWind from/ knotsBaromVisibWave heightAir tempDewpointWater temp
2014-May-18 06:33N 34°20' E 127°58'273 9.4
2014-May-17 01:32N 37°16' E 123°41'1212.0
2014-May-17 00:32N 37°25' E 123°31'1111.5
2014-May-16 23:33N 37°33' E 123°21'1111.3
2014-May-16 22:33N 37°42' E 123°12'1211.9
2014-May-16 21:33N 37°50' E 123°02'1312.6
2014-May-16 20:32N 37°60' E 122°50'1313.5
2014-May-16 19:33N 38°04' E 122°35'1413.8
2014-May-16 18:33N 38°08' E 122°18'1313.4
2014-May-16 17:33N 38°13' E 122°02'1413.3
2014-May-16 16:31N 38°17' E 121°45'1313.1
2014-May-16 15:33N 38°21' E 121°30'1312.9
2014-May-16 14:33N 38°26' E 121°14'  
2014-May-12 13:21N 38°29' E 121°13'1012.4
2014-May-12 12:33N 38°26' E 121°25'1212.1
2014-May-12 11:33N 38°21' E 121°40'1412.0
2014-May-12 10:25N 38°17' E 121°56'1011.9
2014-May-12 09:33N 38°14' E 122°09'  
Track history (hours):
 
Tides and Currents Weather Stations Pressure Air Temp Water Temp Dewpoint Dewpoint Depression Visibility Wind Speed Wind Dir Waves Ship Positions

Genius

Last reported at 2014-May-18 06:33 UTC. Time now 2014-Jul-26 19:17 UTC.
Position N 34°20' E 127°58'.
Warning: this ship's position is months out of date.

Length 288 m; draft 8.4 m.

Type: Cargo ship. MMSI: 235074615.

Date/timePositionNaut miles runAvg speedWind from/ knotsBaromVisibWave heightAir tempDewpointWater temp
2014-May-18 06:33N 34°20' E 127°58'273 9.4
2014-May-17 01:32N 37°16' E 123°41'1212.0
2014-May-17 00:32N 37°25' E 123°31'1111.5
2014-May-16 23:33N 37°33' E 123°21'1111.3
2014-May-16 22:33N 37°42' E 123°12'1211.9
2014-May-16 21:33N 37°50' E 123°02'1312.6
2014-May-16 20:32N 37°60' E 122°50'1313.5
2014-May-16 19:33N 38°04' E 122°35'1413.8
2014-May-16 18:33N 38°08' E 122°18'1313.4
2014-May-16 17:33N 38°13' E 122°02'1413.3
2014-May-16 16:31N 38°17' E 121°45'1313.1
2014-May-16 15:33N 38°21' E 121°30'1312.9
2014-May-16 14:33N 38°26' E 121°14'  
2014-May-12 13:21N 38°29' E 121°13'1012.4
2014-May-12 12:33N 38°26' E 121°25'1212.1
2014-May-12 11:33N 38°21' E 121°40'1412.0
2014-May-12 10:25N 38°17' E 121°56'1011.9
2014-May-12 09:33N 38°14' E 122°09'  

Dump ship's entire track history